Time;durP1;ratioP1;P1;durP2;ratioP2;P2;SDS_P1;SDS_P2;PMS_P1;PMS_P2;Temp;Humidity;BMP_temperature;BMP_pressure;BME280_temperature;BME280_humidity;BME280_pressure;Samples;Min_cycle;Max_cycle;Signal;HPM_P1;HPM_P2
2023/12/20 00:00:37;;;;;;;9.48;6.30;;;7.40;1.00;;;;;;5188155;27;20472;-77
2023/12/20 00:03:06;;;;;;;7.10;6.50;;;7.40;1.00;;;;;;5187910;27;20305;-76
2023/12/20 00:05:33;;;;;;;6.73;6.13;;;7.50;1.00;;;;;;5188832;27;21036;-76
2023/12/20 00:08:00;;;;;;;6.70;6.10;;;7.50;1.00;;;;;;5189347;27;20448;-75
2023/12/20 00:10:27;;;;;;;7.33;6.67;;;7.40;1.00;;;;;;5185076;27;20483;-76
2023/12/20 00:12:54;;;;;;;6.87;6.20;;;7.50;1.00;;;;;;5185151;27;20537;-76
2023/12/20 00:15:21;;;;;;;7.60;6.90;;;7.40;1.00;;;;;;5189536;27;20473;-76
2023/12/20 00:17:50;;;;;;;6.90;6.20;;;7.40;1.00;;;;;;5189378;27;20555;-77
2023/12/20 00:20:18;;;;;;;7.10;6.50;;;7.40;1.00;;;;;;5188738;27;20252;-76
2023/12/20 00:22:46;;;;;;;7.40;6.70;;;7.40;1.00;;;;;;5186652;27;20642;-76
2023/12/20 00:25:13;;;;;;;7.50;6.80;;;7.40;1.00;;;;;;5187596;27;20462;-77
2023/12/20 00:27:40;;;;;;;7.50;6.80;;;7.40;1.00;;;;;;5170224;27;21315;-77
2023/12/20 00:30:08;;;;;;;8.10;7.37;;;7.40;1.00;;;;;;5185283;27;20429;-78
2023/12/20 00:32:36;;;;;;;6.57;5.97;;;7.40;1.00;;;;;;5189014;27;20537;-76
2023/12/20 00:35:04;;;;;;;6.40;5.80;;;7.50;1.00;;;;;;5186052;27;20501;-77
2023/12/20 00:37:32;;;;;;;6.68;5.90;;;7.40;1.00;;;;;;5185668;27;20498;-78
2023/12/20 00:39:59;;;;;;;7.13;6.43;;;7.50;1.00;;;;;;5186792;27;20316;-77
2023/12/20 00:42:26;;;;;;;6.37;5.73;;;7.40;1.00;;;;;;5186161;27;20445;-78
2023/12/20 00:44:54;;;;;;;6.50;5.90;;;7.40;1.00;;;;;;5188046;27;21387;-77
2023/12/20 00:47:21;;;;;;;6.90;6.33;;;7.40;1.00;;;;;;5187083;27;20435;-77
2023/12/20 00:49:49;;;;;;;6.80;6.10;;;7.40;1.00;;;;;;5188214;27;20469;-76
2023/12/20 00:52:17;;;;;;;6.63;6.00;;;7.50;1.00;;;;;;5188445;27;20474;-76
2023/12/20 00:54:45;;;;;;;6.77;6.00;;;7.40;1.00;;;;;;5186858;27;20527;-76
2023/12/20 00:57:12;;;;;;;5.87;5.37;;;7.40;1.00;;;;;;5186505;27;20447;-76
2023/12/20 00:59:39;;;;;;;6.07;5.47;;;7.50;1.00;;;;;;5187646;27;20472;-77
2023/12/20 01:02:06;;;;;;;5.97;5.37;;;7.40;1.00;;;;;;5166968;27;20529;-76
2023/12/20 01:04:33;;;;;;;5.90;5.40;;;7.40;1.00;;;;;;5190537;27;20468;-78
2023/12/20 01:07:00;;;;;;;6.97;5.85;;;7.40;1.00;;;;;;5186140;27;20866;-77
2023/12/20 01:09:28;;;;;;;5.57;5.10;;;7.40;1.00;;;;;;5190826;27;20246;-77
2023/12/20 01:11:56;;;;;;;6.63;6.03;;;7.40;1.00;;;;;;5189029;27;20467;-77
2023/12/20 01:14:23;;;;;;;5.70;5.20;;;7.40;1.00;;;;;;5178494;27;20605;-78
2023/12/20 01:16:52;;;;;;;6.43;5.70;;;7.40;1.00;;;;;;5181363;27;20506;-77
2023/12/20 01:19:19;;;;;;;5.63;5.13;;;7.40;1.00;;;;;;5192904;27;21020;-79
2023/12/20 01:21:45;;;;;;;5.67;5.17;;;7.40;1.00;;;;;;5191366;27;20453;-80
2023/12/20 01:24:15;;;;;;;6.70;5.80;;;7.40;1.00;;;;;;5188762;27;20459;-79
2023/12/20 01:26:42;;;;;;;6.20;5.67;;;7.40;1.00;;;;;;5189918;27;20525;-79
2023/12/20 01:29:10;;;;;;;6.90;6.30;;;7.40;1.00;;;;;;5171187;27;20454;-79
2023/12/20 01:31:37;;;;;;;6.10;5.50;;;7.40;1.00;;;;;;5189863;27;20453;-80
2023/12/20 01:34:04;;;;;;;6.50;5.97;;;7.50;1.00;;;;;;5189464;27;21055;-81
2023/12/20 01:36:31;;;;;;;6.95;6.25;;;7.50;1.00;;;;;;5188461;27;20495;-79
2023/12/20 01:38:58;;;;;;;6.03;5.53;;;7.50;1.00;;;;;;5188494;27;20305;-80
2023/12/20 01:41:25;;;;;;;6.30;5.80;;;7.50;1.00;;;;;;5186928;27;20454;-80
2023/12/20 01:43:54;;;;;;;6.20;5.60;;;7.50;1.00;;;;;;5184739;27;20469;-80
2023/12/20 01:46:22;;;;;;;6.22;5.65;;;7.40;1.00;;;;;;5190669;27;20541;-80
2023/12/20 01:48:50;;;;;;;6.37;5.70;;;7.40;1.00;;;;;;5189212;27;20293;-83
2023/12/20 01:51:17;;;;;;;6.00;5.40;;;7.50;1.00;;;;;;5191591;27;20450;-79
2023/12/20 01:53:44;;;;;;;5.40;4.90;;;7.50;1.00;;;;;;5188159;27;20748;-79
2023/12/20 01:56:12;;;;;;;5.93;5.33;;;7.40;1.00;;;;;;5188950;27;20904;-80
2023/12/20 01:58:43;;;;;;;5.50;5.00;;;7.40;1.00;;;;;;5186257;27;20479;-78
2023/12/20 02:06:23;;;;;;;6.17;5.57;;;7.40;1.00;;;;;;5083923;28;20505;-71
2023/12/20 02:09:04;;;;;;;6.07;5.57;;;7.40;1.00;;;;;;5170359;22;20409;-86
2023/12/20 02:11:31;;;;;;;5.27;4.77;;;7.40;1.00;;;;;;5139879;27;20640;-86
2023/12/20 02:13:58;;;;;;;5.30;4.80;;;7.50;1.00;;;;;;5124819;27;20465;-87
2023/12/20 02:16:29;;;;;;;6.10;5.20;;;7.50;1.00;;;;;;5139603;27;20445;-85
2023/12/20 02:19:18;;;;;;;5.00;4.50;;;7.50;1.00;;;;;;5109290;27;20457;-86
2023/12/20 02:21:50;;;;;;;4.43;4.03;;;7.60;1.00;;;;;;5122808;27;20241;-86
2023/12/20 02:24:18;;;;;;;2.87;2.47;;;7.50;1.00;;;;;;5100181;27;21190;-85
2023/12/20 02:26:46;;;;;;;2.50;2.15;;;7.40;1.00;;;;;;5143168;27;20725;-87
2023/12/20 02:29:14;;;;;;;2.90;2.30;;;7.20;1.00;;;;;;5119547;27;20273;-86
2023/12/20 02:31:50;;;;;;;2.20;1.92;;;7.10;1.00;;;;;;5115188;27;20463;-86
2023/12/20 02:34:18;;;;;;;2.53;2.33;;;7.10;1.00;;;;;;5125106;27;20351;-85
2023/12/20 02:37:01;;;;;;;3.05;2.47;;;7.10;1.00;;;;;;5145148;27;20967;-88
2023/12/20 02:39:30;;;;;;;2.90;2.10;;;7.10;1.00;;;;;;5138064;27;21138;-85
2023/12/20 02:41:57;;;;;;;3.40;2.87;;;7.20;1.00;;;;;;5126334;27;20490;-86
2023/12/20 02:44:25;;;;;;;4.20;3.80;;;7.20;1.00;;;;;;5111026;27;20441;-84
2023/12/20 02:46:52;;;;;;;3.47;3.17;;;7.20;1.00;;;;;;5136757;27;20460;-85
2023/12/20 02:49:19;;;;;;;3.97;3.67;;;7.30;1.00;;;;;;5132622;27;21371;-84
2023/12/20 02:51:47;;;;;;;4.50;4.10;;;7.30;1.00;;;;;;5135360;27;20465;-84
2023/12/20 02:54:18;;;;;;;5.00;4.23;;;7.40;1.00;;;;;;5093248;27;20445;-85
2023/12/20 02:56:45;;;;;;;4.43;3.97;;;7.40;1.00;;;;;;5131609;27;21001;-86
2023/12/20 02:59:17;;;;;;;4.90;4.40;;;7.40;1.00;;;;;;5137078;27;20534;-85
2023/12/20 03:01:49;;;;;;;4.50;4.10;;;7.40;1.00;;;;;;5125966;27;20508;-85
2023/12/20 03:04:17;;;;;;;4.30;3.90;;;7.40;1.00;;;;;;5116535;27;20456;-86
2023/12/20 03:06:45;;;;;;;6.73;3.90;;;7.40;1.00;;;;;;5135756;27;20452;-85
2023/12/20 03:09:18;;;;;;;5.70;4.30;;;7.40;1.00;;;;;;5113021;27;20433;-86
2023/12/20 03:11:53;;;;;;;5.47;4.57;;;7.30;1.00;;;;;;5142478;27;20467;-85
2023/12/20 03:14:21;;;;;;;6.83;4.50;;;7.30;1.00;;;;;;5143361;27;20467;-86
2023/12/20 03:16:55;;;;;;;5.83;4.20;;;7.30;1.00;;;;;;5141793;27;20537;-85
2023/12/20 03:19:24;;;;;;;5.20;4.63;;;7.20;1.00;;;;;;5134476;27;21417;-85
2023/12/20 03:22:00;;;;;;;7.30;5.03;;;7.20;1.00;;;;;;5140189;27;20542;-85
2023/12/20 03:24:45;;;;;;;7.57;4.80;;;7.20;1.00;;;;;;5100706;27;20454;-86
2023/12/20 03:27:18;;;;;;;7.60;4.63;;;7.20;1.00;;;;;;5097352;27;20514;-85
2023/12/20 03:29:45;;;;;;;4.37;3.97;;;7.10;1.00;;;;;;5130803;27;20417;-86
2023/12/20 03:32:12;;;;;;;5.10;4.20;;;7.20;1.00;;;;;;5115540;27;20490;-86
2023/12/20 03:34:39;;;;;;;6.43;3.50;;;7.20;1.00;;;;;;5134546;27;20476;-86
2023/12/20 03:37:14;;;;;;;10.25;5.00;;;7.10;1.00;;;;;;5111850;27;20242;-86
2023/12/20 03:39:51;;;;;;;5.20;3.63;;;7.00;1.00;;;;;;5143257;27;20345;-87
2023/12/20 03:42:25;;;;;;;5.63;3.65;;;7.00;1.00;;;;;;5141378;27;20416;-87
2023/12/20 03:44:52;;;;;;;5.50;3.27;;;7.00;1.00;;;;;;5133685;27;20236;-86
2023/12/20 03:47:19;;;;;;;4.80;3.10;;;7.00;1.00;;;;;;5135562;27;20451;-86
2023/12/20 03:49:47;;;;;;;5.40;3.40;;;7.00;1.00;;;;;;5122322;27;20340;-87
2023/12/20 03:52:14;;;;;;;10.27;3.38;;;7.00;1.00;;;;;;5136783;27;20442;-85
2023/12/20 03:55:02;;;;;;;4.17;3.43;;;6.90;1.00;;;;;;5135735;27;20261;-85
2023/12/20 03:57:31;;;;;;;7.70;3.80;;;7.00;1.00;;;;;;5140535;27;20505;-87
2023/12/20 04:00:00;;;;;;;6.80;2.95;;;6.90;1.00;;;;;;5121008;27;20513;-85
2023/12/20 04:02:30;;;;;;;4.47;3.07;;;6.90;1.00;;;;;;5143133;27;21195;-85
2023/12/20 04:05:00;;;;;;;7.67;2.93;;;6.90;1.00;;;;;;5130772;27;20485;-87
2023/12/20 04:11:01;;;;;;;14.10;5.53;;;6.90;1.00;;;;;;5143869;27;20228;-87
2023/12/20 04:13:29;;;;;;;4.57;2.53;;;6.90;1.00;;;;;;5162479;27;20233;-85
2023/12/20 04:16:08;;;;;;;6.10;3.10;;;6.90;1.00;;;;;;5147846;27;20941;-87
2023/12/20 04:18:36;;;;;;;9.00;3.15;;;6.90;1.00;;;;;;5156321;27;20423;-87
2023/12/20 04:21:03;;;;;;;7.88;3.03;;;6.90;1.00;;;;;;5150998;27;20237;-88
2023/12/20 04:23:31;;;;;;;7.00;4.43;;;6.90;1.00;;;;;;5157867;27;20322;-86
2023/12/20 04:26:02;;;;;;;6.13;2.70;;;6.90;1.00;;;;;;5157655;27;20560;-87
2023/12/20 04:28:30;;;;;;;4.13;2.23;;;6.90;1.00;;;;;;5158037;27;20508;-87
2023/12/20 04:30:59;;;;;;;5.73;2.53;;;6.90;1.00;;;;;;5155751;27;20558;-86
2023/12/20 04:33:28;;;;;;;4.40;2.87;;;6.90;1.00;;;;;;5158415;27;20486;-87
2023/12/20 04:35:55;;;;;;;7.03;2.93;;;7.00;1.00;;;;;;5160295;27;20966;-88
2023/12/20 04:38:23;;;;;;;5.37;2.33;;;7.00;1.00;;;;;;5133538;27;20475;-86
2023/12/20 04:40:50;;;;;;;8.93;2.85;;;7.00;1.00;;;;;;5126990;27;20576;-86
2023/12/20 04:43:22;;;;;;;10.23;2.90;;;6.90;1.00;;;;;;5158316;27;20246;-87
2023/12/20 04:45:51;;;;;;;4.50;2.38;;;6.70;1.00;;;;;;5132228;27;20467;-88
2023/12/20 04:48:18;;;;;;;11.07;3.08;;;6.70;1.00;;;;;;5130543;27;20243;-88
2023/12/20 04:50:45;;;;;;;4.82;2.47;;;6.60;1.00;;;;;;5156968;27;20323;-87
2023/12/20 04:53:16;;;;;;;10.60;2.97;;;6.60;1.00;;;;;;5137334;27;20346;-88
2023/12/20 04:55:43;;;;;;;9.70;2.92;;;6.50;1.00;;;;;;5117728;27;20459;-87
2023/12/20 04:58:10;;;;;;;6.43;2.92;;;6.50;1.00;;;;;;5148760;27;20237;-86
2023/12/20 05:15:14;;;;;;;4.80;2.55;;;6.30;1.00;;;;;;5161531;27;20231;-86
2023/12/20 05:17:42;;;;;;;8.67;3.10;;;6.30;1.00;;;;;;5086817;28;20892;-72
2023/12/20 05:20:10;;;;;;;8.40;3.10;;;6.40;1.00;;;;;;5082530;28;20472;-72
2023/12/20 05:22:37;;;;;;;7.82;2.88;;;6.40;1.00;;;;;;5084747;28;20241;-73
2023/12/20 05:25:05;;;;;;;4.55;2.53;;;6.40;1.00;;;;;;5085403;28;20243;-73
2023/12/20 05:27:31;;;;;;;7.50;4.75;;;6.40;1.00;;;;;;5088697;28;20239;-74
2023/12/20 05:29:59;;;;;;;8.70;3.10;;;6.40;1.00;;;;;;5088644;28;20395;-73
2023/12/20 05:32:26;;;;;;;7.05;3.05;;;6.30;1.00;;;;;;5084562;28;20237;-72
2023/12/20 05:34:54;;;;;;;8.75;3.30;;;6.30;1.00;;;;;;5086524;28;20326;-74
2023/12/20 05:37:21;;;;;;;11.23;3.08;;;6.20;1.00;;;;;;5083188;28;20316;-73
2023/12/20 05:39:48;;;;;;;9.02;3.15;;;6.20;1.00;;;;;;5083455;28;20727;-73
2023/12/20 05:42:15;;;;;;;5.68;3.88;;;6.10;1.00;;;;;;5086593;28;21111;-74
2023/12/20 05:44:42;;;;;;;5.60;3.03;;;6.10;1.00;;;;;;5087100;28;20229;-74
2023/12/20 05:47:09;;;;;;;6.03;2.50;;;6.00;1.00;;;;;;5085162;28;20946;-73
2023/12/20 05:49:36;;;;;;;8.63;3.00;;;6.00;1.00;;;;;;5083565;28;20236;-73
2023/12/20 05:52:05;;;;;;;6.40;3.00;;;5.90;1.00;;;;;;5083360;28;20236;-74
2023/12/20 05:54:32;;;;;;;9.55;3.60;;;5.80;1.00;;;;;;5081444;28;20327;-73
2023/12/20 05:56:59;;;;;;;9.10;2.78;;;5.80;1.00;;;;;;5086408;28;20239;-74
2023/12/20 05:59:26;;;;;;;5.07;2.65;;;5.70;1.00;;;;;;5083815;28;20257;-74
2023/12/20 06:01:53;;;;;;;6.97;3.00;;;5.70;1.00;;;;;;5084591;28;20271;-72
2023/12/20 06:04:20;;;;;;;7.68;2.78;;;5.60;1.00;;;;;;5084503;28;20247;-74
2023/12/20 06:06:48;;;;;;;8.68;3.58;;;5.60;1.00;;;;;;5087453;28;20239;-74
2023/12/20 06:09:16;;;;;;;7.38;3.00;;;5.60;1.00;;;;;;5086420;28;20312;-74
2023/12/20 06:11:43;;;;;;;11.68;4.55;;;5.60;1.00;;;;;;5082189;28;20280;-73
2023/12/20 06:14:10;;;;;;;10.73;3.00;;;5.60;1.00;;;;;;5085203;28;20282;-74
2023/12/20 06:16:38;;;;;;;7.82;3.20;;;5.60;1.00;;;;;;5097401;27;20297;-74
2023/12/20 06:19:05;;;;;;;7.68;3.05;;;5.60;1.00;;;;;;5103944;27;20722;-74
2023/12/20 06:21:32;;;;;;;8.10;2.72;;;5.60;1.00;;;;;;5093000;27;20243;-75
2023/12/20 06:24:00;;;;;;;7.18;3.20;;;5.60;1.00;;;;;;5102087;27;20245;-77
2023/12/20 06:26:31;;;;;;;7.20;3.00;;;5.60;1.00;;;;;;5101042;27;20367;-74
2023/12/20 06:28:57;;;;;;;5.80;3.35;;;5.60;1.00;;;;;;5102107;27;20285;-75
2023/12/20 06:31:24;;;;;;;5.20;3.20;;;5.50;1.00;;;;;;5104997;27;20237;-74
2023/12/20 06:33:57;;;;;;;8.65;3.22;;;5.60;1.00;;;;;;5109485;27;20245;-71
2023/12/20 06:36:24;;;;;;;5.95;2.47;;;5.50;1.00;;;;;;5078484;27;20313;-75
2023/12/20 06:38:51;;;;;;;7.85;2.53;;;5.60;1.00;;;;;;5101129;27;20334;-74
2023/12/20 06:41:18;;;;;;;5.93;2.70;;;5.60;1.00;;;;;;5099408;27;20232;-73
2023/12/20 06:43:47;;;;;;;5.50;2.85;;;5.50;1.00;;;;;;5106444;27;20241;-73
2023/12/20 06:46:14;;;;;;;8.35;3.83;;;5.50;1.00;;;;;;5100378;27;21018;-73
2023/12/20 06:48:41;;;;;;;5.60;2.45;;;5.60;1.00;;;;;;5101361;27;20315;-75
2023/12/20 06:51:12;;;;;;;4.65;2.33;;;5.50;1.00;;;;;;5106601;27;20234;-75
2023/12/20 06:53:42;;;;;;;6.88;2.50;;;5.50;1.00;;;;;;5101941;27;20326;-72
2023/12/20 06:56:11;;;;;;;6.78;3.28;;;5.60;1.00;;;;;;5101623;27;22533;-73
2023/12/20 06:58:38;;;;;;;8.32;2.90;;;5.60;1.00;;;;;;5104835;27;20243;-74
2023/12/20 07:01:11;;;;;;;8.77;3.40;;;5.60;1.00;;;;;;5099105;27;20349;-73
2023/12/20 07:03:39;;;;;;;5.82;2.88;;;5.60;1.00;;;;;;5104831;27;20322;-73
2023/12/20 07:06:06;;;;;;;6.45;2.97;;;5.60;1.00;;;;;;5102781;27;20412;-73
2023/12/20 07:08:34;;;;;;;8.85;3.08;;;5.70;1.00;;;;;;5101726;27;20289;-72
2023/12/20 07:11:01;;;;;;;6.78;3.03;;;5.70;1.00;;;;;;5105312;27;20333;-74
2023/12/20 07:13:28;;;;;;;7.97;3.50;;;5.70;1.00;;;;;;5105858;27;20239;-73
2023/12/20 07:15:55;;;;;;;6.50;2.92;;;5.80;1.00;;;;;;5103110;27;20732;-73
2023/12/20 07:18:23;;;;;;;6.45;2.95;;;5.80;1.00;;;;;;5105683;27;20231;-74
2023/12/20 07:20:50;;;;;;;8.63;3.20;;;5.80;1.00;;;;;;5101539;27;20354;-75
2023/12/20 07:23:17;;;;;;;12.73;4.40;;;5.80;1.00;;;;;;5101329;27;20243;-73
2023/12/20 07:25:44;;;;;;;8.10;3.22;;;5.80;1.00;;;;;;5104065;27;20264;-75
2023/12/20 07:28:11;;;;;;;5.47;3.20;;;5.80;1.00;;;;;;5103285;27;20338;-75
2023/12/20 07:30:38;;;;;;;6.80;3.10;;;5.80;1.00;;;;;;5103205;27;20728;-73
2023/12/20 07:33:08;;;;;;;3.90;3.30;;;5.80;1.00;;;;;;5102453;27;20279;-73
2023/12/20 07:35:37;;;;;;;6.00;3.57;;;5.90;1.00;;;;;;5102623;27;20451;-74
2023/12/20 07:38:06;;;;;;;5.88;3.08;;;5.90;1.00;;;;;;5099236;27;20475;-73
2023/12/20 07:40:34;;;;;;;10.77;3.83;;;5.90;1.00;;;;;;5099376;27;20243;-74
2023/12/20 07:43:00;;;;;;;11.18;4.15;;;5.90;1.00;;;;;;5097043;27;20635;-76
2023/12/20 07:45:28;;;;;;;6.60;3.50;;;5.90;1.00;;;;;;5103448;27;20323;-74
2023/12/20 07:47:55;;;;;;;4.28;2.50;;;6.00;1.00;;;;;;5103853;27;20232;-75
2023/12/20 07:50:22;;;;;;;6.25;3.00;;;6.00;1.00;;;;;;5101977;27;20707;-73
2023/12/20 07:52:50;;;;;;;10.38;3.60;;;6.00;1.00;;;;;;5102562;27;20932;-72
2023/12/20 07:55:17;;;;;;;5.90;2.70;;;5.90;1.00;;;;;;5104726;27;20248;-73
2023/12/20 07:57:45;;;;;;;5.10;2.95;;;5.90;1.00;;;;;;5102742;27;20292;-73
2023/12/20 08:00:12;;;;;;;8.80;3.67;;;6.00;1.00;;;;;;5104426;27;20332;-74
2023/12/20 08:02:39;;;;;;;9.02;3.22;;;6.00;1.00;;;;;;5105308;27;20233;-74
2023/12/20 08:05:07;;;;;;;6.10;2.53;;;6.00;1.00;;;;;;5107726;27;21061;-71
2023/12/20 08:07:36;;;;;;;9.13;2.90;;;6.00;1.00;;;;;;5105551;27;20247;-72
2023/12/20 08:10:05;;;;;;;4.85;2.55;;;6.00;1.00;;;;;;5107978;27;20958;-68
2023/12/20 08:12:33;;;;;;;4.78;2.90;;;6.00;1.00;;;;;;5107517;27;20320;-70
2023/12/20 08:15:03;;;;;;;7.40;3.25;;;6.00;1.00;;;;;;5106750;27;20242;-69
2023/12/20 08:17:30;;;;;;;10.75;4.28;;;6.10;1.00;;;;;;5109605;27;20271;-71
2023/12/20 08:19:57;;;;;;;9.25;3.95;;;6.10;1.00;;;;;;5105742;27;20290;-72
2023/12/20 08:22:25;;;;;;;5.85;3.10;;;6.20;1.00;;;;;;5109665;27;20242;-72
2023/12/20 08:24:52;;;;;;;7.65;3.00;;;6.20;1.00;;;;;;5105398;27;20250;-71
2023/12/20 08:27:20;;;;;;;9.95;4.40;;;6.20;1.00;;;;;;5111946;27;20228;-77
2023/12/20 08:29:49;;;;;;;4.68;2.78;;;6.20;1.00;;;;;;5107543;27;20248;-71
2023/12/20 08:32:16;;;;;;;9.57;2.72;;;6.20;1.00;;;;;;5107797;27;21239;-70
2023/12/20 08:34:43;;;;;;;5.78;2.85;;;6.20;1.00;;;;;;5108372;27;20232;-69
2023/12/20 08:37:13;;;;;;;8.40;2.65;;;6.20;1.00;;;;;;5105794;27;20326;-74
2023/12/20 08:39:39;;;;;;;5.05;2.42;;;6.20;1.00;;;;;;5109827;27;20245;-71
2023/12/20 08:42:07;;;;;;;4.40;2.30;;;6.20;1.00;;;;;;5108320;27;21182;-69
2023/12/20 08:44:35;;;;;;;6.95;3.42;;;6.20;1.00;;;;;;5106311;27;20245;-73
2023/12/20 08:47:02;;;;;;;5.40;2.97;;;6.10;1.00;;;;;;5106477;27;20356;-68
2023/12/20 08:49:32;;;;;;;7.63;2.45;;;6.20;1.00;;;;;;5102654;27;20242;-75
2023/12/20 08:51:59;;;;;;;10.25;2.60;;;6.20;1.00;;;;;;5108912;27;20240;-77
2023/12/20 08:54:26;;;;;;;6.88;2.63;;;6.30;1.00;;;;;;5109475;27;20239;-73
2023/12/20 08:56:53;;;;;;;5.45;2.22;;;6.40;1.00;;;;;;5103031;27;20246;-71
2023/12/20 08:59:20;;;;;;;13.15;3.00;;;6.50;1.00;;;;;;5104601;27;20726;-69
2023/12/20 09:01:54;;;;;;;8.23;3.22;;;6.60;1.00;;;;;;5106001;27;20957;-70
2023/12/20 09:04:21;;;;;;;10.38;2.70;;;6.50;1.00;;;;;;5106862;27;20233;-69
2023/12/20 09:06:47;;;;;;;5.25;3.20;;;6.50;1.00;;;;;;5109685;27;20248;-68
2023/12/20 09:09:14;;;;;;;9.00;3.22;;;6.50;1.00;;;;;;5106012;27;20326;-69
2023/12/20 09:11:42;;;;;;;3.53;1.83;;;6.50;1.00;;;;;;5105216;27;20674;-67
2023/12/20 09:14:09;;;;;;;5.50;2.45;;;6.50;1.00;;;;;;5108629;27;20243;-70
2023/12/20 09:16:36;;;;;;;7.03;2.83;;;6.70;1.00;;;;;;5106305;27;20346;-73
2023/12/20 09:19:04;;;;;;;11.48;3.05;;;6.80;1.00;;;;;;5100558;27;22208;-70
2023/12/20 09:21:31;;;;;;;9.20;2.70;;;6.90;1.00;;;;;;5099890;27;20303;-73
2023/12/20 09:23:58;;;;;;;5.43;2.45;;;7.00;1.00;;;;;;5103733;27;20238;-71
2023/12/20 09:26:25;;;;;;;9.63;3.28;;;7.00;1.00;;;;;;5102457;27;20234;-72
2023/12/20 09:28:52;;;;;;;9.70;3.78;;;7.00;1.00;;;;;;5105169;27;20239;-69
2023/12/20 09:31:19;;;;;;;8.18;2.08;;;7.00;1.00;;;;;;5094184;27;20355;-77
2023/12/20 09:33:46;;;;;;;7.47;2.60;;;7.00;1.00;;;;;;5105124;27;20303;-73
2023/12/20 09:36:15;;;;;;;7.03;3.07;;;7.00;1.00;;;;;;5102469;27;20513;-72
2023/12/20 09:38:42;;;;;;;7.32;2.78;;;7.10;1.00;;;;;;5095197;27;20455;-71
2023/12/20 09:41:09;;;;;;;7.55;2.55;;;7.00;1.00;;;;;;5088972;27;20460;-69
2023/12/20 09:43:38;;;;;;;5.82;3.17;;;7.10;1.00;;;;;;5105084;27;20231;-69
2023/12/20 09:46:07;;;;;;;5.97;3.40;;;7.10;1.00;;;;;;5103216;27;22411;-70
2023/12/20 09:48:35;;;;;;;7.00;2.90;;;7.10;1.00;;;;;;5107606;27;20456;-73
2023/12/20 09:51:02;;;;;;;4.60;2.35;;;7.10;1.00;;;;;;5107460;27;20326;-71
2023/12/20 09:53:35;;;;;;;7.80;2.73;;;7.00;1.00;;;;;;5106563;27;20262;-71
2023/12/20 09:56:03;;;;;;;3.53;2.87;;;7.00;1.00;;;;;;5101798;27;20491;-73
2023/12/20 09:58:30;;;;;;;10.80;2.83;;;7.10;1.00;;;;;;5096174;27;21303;-70
2023/12/20 10:00:57;;;;;;;5.00;2.60;;;7.10;1.00;;;;;;5109614;27;20724;-70
2023/12/20 10:03:26;;;;;;;8.13;4.60;;;7.00;1.00;;;;;;5104165;27;20239;-69
2023/12/20 10:05:57;;;;;;;6.10;2.60;;;7.10;1.00;;;;;;5110347;27;20511;-72
2023/12/20 10:08:25;;;;;;;7.32;2.47;;;7.10;1.00;;;;;;5105909;27;20499;-72
2023/12/20 10:10:54;;;;;;;6.25;2.50;;;7.20;1.00;;;;;;5107924;27;20240;-69
2023/12/20 10:13:23;;;;;;;5.73;2.43;;;7.20;1.00;;;;;;5108231;27;20238;-71
2023/12/20 10:15:51;;;;;;;8.30;3.47;;;7.20;1.00;;;;;;5106570;27;20476;-72
2023/12/20 10:18:18;;;;;;;5.82;2.90;;;7.20;1.00;;;;;;5106808;27;20468;-71
2023/12/20 10:20:46;;;;;;;5.77;3.13;;;7.30;1.00;;;;;;5105607;27;20245;-70
2023/12/20 10:23:15;;;;;;;8.60;3.13;;;7.30;1.00;;;;;;5102614;27;20989;-71
2023/12/20 10:25:42;;;;;;;7.50;3.80;;;7.40;1.00;;;;;;5100323;27;20491;-72
2023/12/20 10:28:18;;;;;;;9.35;2.90;;;7.30;1.00;;;;;;5102693;27;20553;-69
2023/12/20 10:30:45;;;;;;;6.63;2.83;;;7.30;1.00;;;;;;5104642;27;20245;-70
2023/12/20 10:33:12;;;;;;;9.07;3.40;;;7.30;1.00;;;;;;5106521;27;20488;-73
2023/12/20 10:35:41;;;;;;;6.17;3.50;;;7.30;1.00;;;;;;5105447;27;21006;-70
2023/12/20 10:38:09;;;;;;;6.82;3.70;;;7.30;1.00;;;;;;5103098;27;21005;-71
2023/12/20 10:40:37;;;;;;;7.37;2.87;;;7.30;1.00;;;;;;5106328;27;20718;-69
2023/12/20 10:43:05;;;;;;;3.93;2.53;;;7.30;1.00;;;;;;5105107;27;20499;-73
2023/12/20 10:45:34;;;;;;;8.20;3.50;;;7.40;1.00;;;;;;5106831;27;20499;-70
2023/12/20 10:48:03;;;;;;;7.00;2.63;;;7.30;1.00;;;;;;5105437;27;20480;-70
2023/12/20 10:50:30;;;;;;;8.52;2.47;;;7.30;1.00;;;;;;5106501;27;20774;-70
2023/12/20 10:52:58;;;;;;;4.60;2.70;;;7.30;1.00;;;;;;5103816;27;20318;-67
2023/12/20 10:55:25;;;;;;;7.00;3.33;;;7.50;1.00;;;;;;5107627;27;20600;-71
2023/12/20 10:57:53;;;;;;;10.13;3.53;;;7.50;1.00;;;;;;5108761;27;20548;-71
2023/12/20 11:00:21;;;;;;;4.70;2.70;;;7.50;1.00;;;;;;5107498;27;20511;-71
2023/12/20 11:02:51;;;;;;;11.03;3.10;;;7.50;1.00;;;;;;5103096;27;20553;-70
2023/12/20 11:05:28;;;;;;;7.97;3.00;;;7.60;1.00;;;;;;5102606;27;20484;-72
2023/12/20 11:08:03;;;;;;;11.23;3.73;;;7.50;1.00;;;;;;5103659;27;20914;-73
2023/12/20 11:10:37;;;;;;;7.72;3.45;;;7.50;1.00;;;;;;5103283;27;20996;-71
2023/12/20 11:13:10;;;;;;;8.07;3.27;;;7.60;1.00;;;;;;5107455;27;20705;-70
2023/12/20 11:15:37;;;;;;;11.07;3.50;;;7.60;1.00;;;;;;5106223;27;20481;-70
2023/12/20 11:18:07;;;;;;;7.78;2.80;;;7.60;1.00;;;;;;5104848;27;21082;-73
2023/12/20 11:20:38;;;;;;;8.68;3.00;;;7.50;1.00;;;;;;5109633;27;20238;-70
2023/12/20 11:23:06;;;;;;;8.90;3.80;;;7.40;1.00;;;;;;5104855;27;20333;-69
2023/12/20 11:25:48;;;;;;;7.80;3.42;;;7.30;1.00;;;;;;5103623;27;20492;-69
2023/12/20 11:28:17;;;;;;;6.75;2.78;;;7.30;1.00;;;;;;5107291;27;20276;-71
2023/12/20 11:30:48;;;;;;;5.95;2.97;;;7.20;1.00;;;;;;5112672;27;20229;-69
2023/12/20 11:33:17;;;;;;;6.77;4.17;;;7.10;1.00;;;;;;5108099;27;20227;-69
2023/12/20 11:35:47;;;;;;;9.40;4.00;;;7.10;1.00;;;;;;5111658;27;20504;-75
2023/12/20 11:38:15;;;;;;;7.70;4.20;;;7.10;1.00;;;;;;5109124;27;20562;-73
2023/12/20 11:40:43;;;;;;;6.72;3.08;;;7.00;1.00;;;;;;5109337;27;20486;-76
2023/12/20 11:43:12;;;;;;;5.93;3.80;;;7.00;1.00;;;;;;5112192;27;20331;-78
2023/12/20 11:45:39;;;;;;;5.53;2.90;;;6.90;1.00;;;;;;5111087;27;20458;-75
2023/12/20 11:48:08;;;;;;;11.70;4.38;;;6.90;1.00;;;;;;5111392;27;20457;-73
2023/12/20 11:50:40;;;;;;;5.85;2.83;;;6.90;1.00;;;;;;5108117;27;20241;-75
2023/12/20 11:53:07;;;;;;;9.77;3.80;;;6.90;1.00;;;;;;5106778;27;20329;-73
2023/12/20 11:55:36;;;;;;;8.27;4.75;;;6.80;1.00;;;;;;5112832;27;20504;-75
2023/12/20 11:58:03;;;;;;;6.75;3.35;;;6.80;1.00;;;;;;5109619;27;20263;-73
2023/12/20 12:00:30;;;;;;;5.72;3.30;;;6.80;1.00;;;;;;5108968;27;20350;-74
2023/12/20 12:02:58;;;;;;;8.48;3.50;;;6.90;1.00;;;;;;5110867;27;20287;-75
2023/12/20 12:05:25;;;;;;;8.57;3.33;;;6.90;1.00;;;;;;5107397;27;20242;-74
2023/12/20 12:07:54;;;;;;;6.68;3.78;;;6.90;1.00;;;;;;5106292;27;20442;-76
2023/12/20 12:10:21;;;;;;;6.90;3.60;;;6.90;1.00;;;;;;5112751;27;20247;-75
2023/12/20 12:12:48;;;;;;;8.37;3.70;;;6.80;1.00;;;;;;5113166;27;20233;-77
2023/12/20 12:15:16;;;;;;;7.13;3.00;;;6.90;1.00;;;;;;5111393;27;20495;-74
2023/12/20 12:17:43;;;;;;;7.47;3.10;;;6.90;1.00;;;;;;5114816;27;20229;-75
2023/12/20 12:20:11;;;;;;;6.57;4.20;;;6.90;1.00;;;;;;5111265;27;20239;-74
2023/12/20 12:22:38;;;;;;;6.60;3.10;;;6.90;1.00;;;;;;5108929;27;20283;-74
2023/12/20 12:25:14;;;;;;;7.23;2.90;;;6.90;1.00;;;;;;5106560;27;20440;-74
2023/12/20 12:27:42;;;;;;;6.53;3.35;;;6.90;1.00;;;;;;5111170;27;20599;-72
2023/12/20 12:30:12;;;;;;;4.60;2.50;;;7.00;1.00;;;;;;5107902;27;20327;-76
2023/12/20 12:32:40;;;;;;;6.50;3.10;;;7.00;1.00;;;;;;5108378;27;20456;-77
2023/12/20 12:35:08;;;;;;;7.77;3.50;;;6.90;1.00;;;;;;5108845;27;20455;-77
2023/12/20 12:37:36;;;;;;;5.43;3.10;;;6.90;1.00;;;;;;5110067;27;22496;-73
2023/12/20 12:40:05;;;;;;;7.55;3.45;;;6.80;1.00;;;;;;5109068;27;20233;-73
2023/12/20 12:42:34;;;;;;;4.50;3.50;;;6.70;1.00;;;;;;5107012;27;20239;-74
2023/12/20 12:45:01;;;;;;;6.85;3.25;;;6.60;1.00;;;;;;5108914;27;20562;-78
2023/12/20 12:47:28;;;;;;;7.63;3.05;;;6.60;1.00;;;;;;5105129;27;21544;-75
2023/12/20 12:49:55;;;;;;;6.45;3.53;;;6.50;1.00;;;;;;5109322;27;20255;-72
2023/12/20 12:52:22;;;;;;;5.35;3.05;;;6.40;1.00;;;;;;5104180;27;20232;-74
2023/12/20 12:54:49;;;;;;;7.53;3.10;;;6.40;1.00;;;;;;5108958;27;20244;-73
2023/12/20 12:57:17;;;;;;;9.02;4.35;;;6.30;1.00;;;;;;5111688;27;20299;-74
2023/12/20 12:59:46;;;;;;;7.53;4.00;;;6.30;1.00;;;;;;5112085;27;20239;-74
2023/12/20 13:02:14;;;;;;;9.20;3.65;;;6.30;1.00;;;;;;5111889;27;20311;-76
2023/12/20 13:04:41;;;;;;;5.72;3.30;;;6.30;1.00;;;;;;5106189;27;20989;-73
2023/12/20 13:07:10;;;;;;;6.93;3.10;;;6.30;1.00;;;;;;5108368;27;20290;-75
2023/12/20 13:09:38;;;;;;;5.05;3.13;;;6.30;1.00;;;;;;5107463;27;20307;-73
2023/12/20 13:12:06;;;;;;;6.60;3.55;;;6.30;1.00;;;;;;5107260;27;20247;-75
2023/12/20 13:14:34;;;;;;;6.40;3.97;;;6.30;1.00;;;;;;5086508;27;20236;-73
2023/12/20 13:17:03;;;;;;;11.18;3.58;;;6.20;1.00;;;;;;5103588;27;20255;-73
2023/12/20 13:19:30;;;;;;;6.25;3.28;;;6.30;1.00;;;;;;5104523;27;20322;-73
2023/12/20 13:21:58;;;;;;;7.03;3.85;;;6.30;1.00;;;;;;5107037;27;20231;-74
2023/12/20 13:24:25;;;;;;;7.90;3.03;;;6.30;1.00;;;;;;5109703;27;20240;-74
2023/12/20 13:26:52;;;;;;;5.78;4.20;;;6.30;1.00;;;;;;5106168;27;20251;-72
2023/12/20 13:29:19;;;;;;;8.38;4.35;;;6.20;1.00;;;;;;5107897;27;20240;-74
2023/12/20 13:31:46;;;;;;;3.70;2.53;;;6.20;1.00;;;;;;5108453;27;21036;-75
2023/12/20 13:34:14;;;;;;;1.90;1.70;;;6.00;1.00;;;;;;5098598;27;20328;-76
2023/12/20 13:36:45;;;;;;;2.67;1.88;;;5.70;1.00;;;;;;5107943;27;20239;-75